MSC Nuria — 3ESE2 — position and weather

sailwx.info

Track history (hours):
 
Tides and Currents Weather Stations Pressure Air Temp Water Temp Dewpoint Dewpoint Depression Visibility Wind Speed Wind Dir Waves Ship Positions

MSC Nuria

Last reported at 2015-Jul-05 15:08 UTC. Time now 2015-Aug-04 21:59 UTC.
Position N 49°55' W 003°18'.
Warning: this ship's position is 30 days out of date.

Length 275 m; draft 10 m.

Type: Ship (hazmat cat A). MMSI: 370272977.

Date/timePositionNaut miles runAvg speedWind from/ knotsBaromVisibWave heightAir tempDewpointWater temp
2015-Jul-05 15:08N 49°55' W 003°18'1718.5
2015-Jul-05 14:14N 50°01' W 002°53'1217.9
2015-Jul-05 13:33N 50°04' W 002°35'8914.9
2015-Jul-05 07:33N 50°27' W 000°20'1717.6
2015-Jul-05 06:33N 50°32' E 000°07'1616.1
2015-Jul-05 05:34N 50°36' E 000°31'1515.4
2015-Jul-05 04:34N 50°45' E 000°51'1414.2
2015-Jul-05 03:33N 50°54' E 001°08'1212.4
2015-Jul-05 02:33N 51°02' E 001°24'1111.1
2015-Jul-05 01:33N 51°09' E 001°38'1212.1
2015-Jul-05 00:34N 51°18' E 001°50'1514.9
2015-Jul-04 23:34N 51°31' E 002°02'1616.5
2015-Jul-04 22:34N 51°43' E 002°19'1616.2
2015-Jul-04 21:33N 51°55' E 002°37'1615.6
2015-Jul-04 20:34N 52°07' E 002°54'1514.6
2015-Jul-04 19:34N 52°19' E 003°08'1413.7
2015-Jul-04 18:33N 52°30' E 003°21'1313.3
2015-Jul-04 17:33N 52°41' E 003°34'1313.1
2015-Jul-04 16:33N 52°51' E 003°48'1313.2
2015-Jul-04 15:33N 52°60' E 004°04'1414.4
2015-Jul-04 14:34N 53°09' E 004°22'1413.9
2015-Jul-04 13:34N 53°22' E 004°32'1313.3
2015-Jul-04 12:34N 53°31' E 004°48'1414.2
2015-Jul-04 11:33N 53°36' E 005°10'1212.5
2015-Jul-04 10:33N 53°40' E 005°30'10 9.6
2015-Jul-04 09:33N 53°44' E 005°45'5 4.8
2015-Jul-04 08:33N 53°45' E 005°53'8 8.1
2015-Jul-04 07:33N 53°47' E 006°06'9 8.7
2015-Jul-04 06:33N 53°50' E 006°20'10 9.9
2015-Jul-04 05:33N 53°52' E 006°36'1010.4
2015-Jul-04 04:33N 53°55' E 006°53'1010.4
2015-Jul-04 03:33N 53°57' E 007°10'1010.1
2015-Jul-04 02:33N 53°60' E 007°27'9 9.4
2015-Jul-04 01:33N 54°03' E 007°42'2 1.7
2015-Jul-04 00:31N 54°04' E 007°44'0 0.1
2015-Jul-03 23:31N 54°04' E 007°44'0 0.1
2015-Jul-03 22:28N 54°04' E 007°44'0 0.0
2015-Jul-03 21:33N 54°04' E 007°44'0 0.0
2015-Jul-03 20:33N 54°04' E 007°44'0 0.0
2015-Jul-03 19:29N 54°04' E 007°44'0 0.0
2015-Jul-03 18:32N 54°04' E 007°44'0 0.0
2015-Jul-03 17:28N 54°04' E 007°44'0 0.1
2015-Jul-03 16:32N 54°04' E 007°44'0 0.0
2015-Jul-03 15:32N 54°04' E 007°44'0 0.0
2015-Jul-03 14:18N 54°04' E 007°44'0 0.1
2015-Jul-03 13:33N 54°04' E 007°44'0 0.0
2015-Jul-03 11:29N 54°04' E 007°44'0 0.0
2015-Jul-03 10:23N 54°04' E 007°44'0 0.0
2015-Jul-03 09:25N 54°04' E 007°44'0 0.3
2015-Jul-03 08:33N 54°04' E 007°44'3 3.4
2015-Jul-03 07:33N 54°03' E 007°49'1110.7
2015-Jul-03 06:33N 54°01' E 008°07'1211.9
2015-Jul-03 05:33N 53°59' E 008°27'1313.1
2015-Jul-03 04:33N 53°51' E 008°45'1212.3
2015-Jul-03 03:34N 53°53' E 009°06'10 9.9
2015-Jul-03 02:33N 53°50' E 009°22'7 6.6
2015-Jul-03 01:33N 53°44' E 009°27'9 9.4
2015-Jul-03 00:34N 53°36' E 009°36'7 7.4
2015-Jul-02 23:33N 53°33' E 009°47'4 4.3
2015-Jul-02 22:32N 53°32' E 009°54'0 0.0
2015-Jul-02 21:32N 53°32' E 009°54'0 0.0
2015-Jul-02 20:29N 53°32' E 009°54'0 0.0
2015-Jul-02 19:28N 53°32' E 009°54'0 0.0
2015-Jul-02 18:31N 53°32' E 009°54'0 0.0
2015-Jul-02 17:33N 53°32' E 009°54'0 0.0
2015-Jul-02 16:33N 53°32' E 009°54'0 0.0
2015-Jul-02 15:32N 53°32' E 009°54'0 0.0
2015-Jul-02 14:26N 53°32' E 009°54'0 0.0
2015-Jul-02 13:32N 53°32' E 009°54'0 0.0
2015-Jul-02 12:28N 53°32' E 009°54'0 0.0
2015-Jul-02 11:31N 53°32' E 009°54'0 0.0
2015-Jul-02 10:24N 53°32' E 009°54'0 0.0
2015-Jul-02 09:33N 53°32' E 009°54'0 0.0
2015-Jul-02 08:32N 53°32' E 009°54'0 0.0
2015-Jul-02 07:05N 53°32' E 009°54'0 0.0
2015-Jul-02 06:30N 53°32' E 009°54'0 0.0
2015-Jul-02 05:28N 53°32' E 009°54'0 0.0
2015-Jul-02 04:28N 53°32' E 009°54'1 0.9
2015-Jul-02 03:33N 53°32' E 009°53'9 9.0
2015-Jul-02 02:33N 53°34' E 009°39'1211.9
2015-Jul-02 01:33N 53°44' E 009°27'1313.0
2015-Jul-02 00:33N 53°53' E 009°10'1514.9
2015-Jul-01 23:33N 53°51' E 008°45'1815.5
2015-Jul-01 22:22N 53°60' E 008°17'8 9.8
2015-Jul-01 21:33N 53°59' E 008°04'8 7.3
2015-Jul-01 20:25N 53°58' E 007°50'3 3.5
2015-Jul-01 19:33N 54°01' E 007°47'13 4.3
2015-Jul-01 16:33N 53°51' E 008°02'1313.1
2015-Jul-01 15:34N 53°43' E 008°19'1111.4
2015-Jul-01 14:33N 53°34' E 008°32'0 0.0
2015-Jul-01 13:25N 53°34' E 008°32'0 0.0
2015-Jul-01 12:31N 53°34' E 008°32'0 0.0
2015-Jul-01 10:30N 53°34' E 008°32'0 0.0
2015-Jul-01 09:29N 53°34' E 008°32'0 0.0
2015-Jul-01 08:29N 53°34' E 008°32'0 0.0
2015-Jul-01 07:28N 53°34' E 008°32'0 0.0
2015-Jul-01 06:19N 53°34' E 008°32'0 0.0
2015-Jul-01 05:31N 53°34' E 008°32'0 0.0
2015-Jul-01 04:33N 53°34' E 008°32'0 0.0
2015-Jul-01 03:33N 53°34' E 008°32'0 0.0
2015-Jul-01 02:32N 53°34' E 008°32'0 0.0
2015-Jul-01 01:32N 53°34' E 008°32'0 0.0
2015-Jul-01 00:31N 53°34' E 008°32'0 0.0
2015-Jun-30 23:31N 53°34' E 008°32'0 0.0
2015-Jun-30 22:19N 53°34' E 008°32'2 2.3
2015-Jun-30 21:33N 53°36' E 008°31'1615.9
2015-Jun-30 20:33N 53°46' E 008°10'1513.9
2015-Jun-30 19:30N 53°53' E 007°48'5 5.7
2015-Jun-30 18:32N 53°54' E 007°39'0 0.5
2015-Jun-30 17:33N 53°54' E 007°39'0 0.3
2015-Jun-30 16:33N 53°54' E 007°38'1919.1
2015-Jun-30 15:34N 53°52' E 007°06'2019.7
2015-Jun-30 14:34N 53°47' E 006°34'2020.2
2015-Jun-30 13:34N 53°41' E 006°01'2020.3
2015-Jun-30 12:34N 53°34' E 005°29'2019.8
2015-Jun-30 11:33N 53°27' E 004°58'1919.1
2015-Jun-30 10:33N 53°14' E 004°34'2120.6
2015-Jun-30 09:32N 52°56' E 004°17'2020.3
2015-Jun-30 08:33N 52°40' E 003°58'2020.1
2015-Jun-30 07:33N 52°25' E 003°35'1918.8
2015-Jun-30 06:33N 52°12' E 003°13'1818.5
2015-Jun-30 05:33N 52°02' E 002°48'1919.2
2015-Jun-30 04:33N 51°55' E 002°19'1919.4
2015-Jun-30 03:33N 51°49' E 001°49'1110.9
2015-Jun-30 02:34N 51°47' E 001°32'1616.3
2015-Jun-30 01:33N 51°34' E 001°14'1615.6
2015-Jun-30 00:34N 51°29' E 000°51'1313.2
2015-Jun-29 23:33N 51°30' E 000°29'6 6.3
2015-Jun-29 22:34N 51°27' E 000°21'1 0.9
2015-Jun-29 21:33N 51°28' E 000°20'0 0.0
2015-Jun-29 20:33N 51°28' E 000°20'0 0.0
2015-Jun-29 19:33N 51°28' E 000°20'0 0.0
2015-Jun-29 18:33N 51°28' E 000°20'0 0.0
2015-Jun-29 17:33N 51°28' E 000°20'0 0.0
2015-Jun-29 16:33N 51°28' E 000°20'0 0.0
2015-Jun-29 15:33N 51°28' E 000°20'0 0.0
2015-Jun-29 14:33N 51°28' E 000°20'0 0.0
2015-Jun-29 13:33N 51°28' E 000°20'0 0.0
2015-Jun-29 12:33N 51°28' E 000°20'0 0.0
2015-Jun-29 11:33N 51°28' E 000°20'0 0.0
2015-Jun-29 10:33N 51°28' E 000°20'0 0.0
2015-Jun-29 09:34N 51°28' E 000°20'0 0.0
2015-Jun-29 08:34N 51°28' E 000°20'0 0.0
2015-Jun-29 07:33N 51°28' E 000°20'0 0.0
2015-Jun-29 06:33N 51°28' E 000°20'0 0.0
2015-Jun-29 05:33N 51°28' E 000°20'0 0.0
2015-Jun-29 04:34N 51°28' E 000°20'0 0.0
2015-Jun-29 03:34N 51°28' E 000°20'0 0.0
2015-Jun-29 02:34N 51°28' E 000°20'0 0.0
2015-Jun-29 01:34N 51°28' E 000°20'0 0.0
2015-Jun-29 00:31N 51°28' E 000°20'0 0.0
2015-Jun-28 23:31N 51°28' E 000°20'0 0.0
2015-Jun-28 22:34N 51°28' E 000°20'5 5.2
2015-Jun-28 21:33N 51°29' E 000°28'1212.5
2015-Jun-28 20:33N 51°29' E 000°48'1514.8
2015-Jun-28 19:33N 51°34' E 001°11'1716.7
2015-Jun-28 18:33N 51°45' E 001°31'10 9.6
2015-Jun-28 17:33N 51°51' E 001°42'4 3.8
2015-Jun-28 16:33N 51°50' E 001°47'1414.4
2015-Jun-28 15:34N 51°35' E 001°52'1817.7
2015-Jun-28 14:34N 51°22' E 002°10'1717.2
2015-Jun-28 13:34N 51°23' E 002°38'1111.0
2015-Jun-28 12:33N 51°23' E 002°55'1413.9
2015-Jun-28 11:34N 51°25' E 003°17'1211.9
2015-Jun-28 10:33N 51°26' E 003°36'1010.5
2015-Jun-28 09:33N 51°21' E 003°51'8 7.8
2015-Jun-28 08:33N 51°24' E 004°02'8 8.3
2015-Jun-28 07:33N 51°21' E 004°14'2 1.7
2015-Jun-28 06:33N 51°21' E 004°17'0 0.3
2015-Jun-28 05:33N 51°21' E 004°17'2 1.7
2015-Jun-28 04:33N 51°19' E 004°19'0 0.0
2015-Jun-28 03:33N 51°19' E 004°19'0 0.0
2015-Jun-28 02:32N 51°19' E 004°19'0 0.0
2015-Jun-28 01:32N 51°19' E 004°19'0 0.0
2015-Jun-28 00:32N 51°19' E 004°19'0 0.0
2015-Jun-27 23:31N 51°19' E 004°19'0 0.0
2015-Jun-27 22:28N 51°19' E 004°19'0 0.0
2015-Jun-27 21:33N 51°19' E 004°19'0 0.0
2015-Jun-27 20:33N 51°19' E 004°19'0 0.0
2015-Jun-27 19:32N 51°19' E 004°19'0 0.0
2015-Jun-27 18:32N 51°19' E 004°19'0 0.0
2015-Jun-27 17:32N 51°19' E 004°19'0 0.0
2015-Jun-27 16:31N 51°19' E 004°19'0 0.0
2015-Jun-27 15:31N 51°19' E 004°19'0 0.0
2015-Jun-27 14:33N 51°19' E 004°19'0 0.0
2015-Jun-27 13:33N 51°19' E 004°19'0 0.0
2015-Jun-27 12:32N 51°19' E 004°19'0 0.0
2015-Jun-27 11:32N 51°19' E 004°19'0 0.0
2015-Jun-27 10:32N 51°19' E 004°19'0 0.0
2015-Jun-27 09:31N 51°19' E 004°19'0 0.0
2015-Jun-27 08:33N 51°19' E 004°19'0 0.0
2015-Jun-27 07:33N 51°19' E 004°19'0 0.0
2015-Jun-27 06:33N 51°19' E 004°19'0 0.0
2015-Jun-27 05:33N 51°19' E 004°19'0 0.0
2015-Jun-27 04:32N 51°19' E 004°19'0 0.0
2015-Jun-27 03:32N 51°19' E 004°19'0 0.0
2015-Jun-27 02:31N 51°19' E 004°19'2 1.7
2015-Jun-27 01:33N 51°21' E 004°18'0 0.4
2015-Jun-27 00:33N 51°21' E 004°17'6 6.0
2015-Jun-26 23:33N 51°22' E 004°08'8 8.0
2015-Jun-26 22:33N 51°22' E 003°55'1211.6
2015-Jun-26 21:34N 51°26' E 003°38'1413.6
2015-Jun-26 20:33N 51°24' E 003°16'10 9.5
2015-Jun-26 19:33N 51°29' E 003°02'1313.4
2015-Jun-26 18:33N 51°40' E 003°13'7 7.2
2015-Jun-26 17:33N 51°47' E 003°17'0 0.2
2015-Jun-26 16:23N 51°47' E 003°18'0 0.1
2015-Jun-26 15:14N 51°47' E 003°18'0 0.0
2015-Jun-26 14:28N 51°47' E 003°18'0 0.0
2015-Jun-26 13:19N 51°47' E 003°18'0 0.0
2015-Jun-26 12:31N 51°47' E 003°18'0 0.0
2015-Jun-26 11:30N 51°47' E 003°18'0 0.0
2015-Jun-26 10:33N 51°47' E 003°18'0 0.0
2015-Jun-26 09:32N 51°47' E 003°18'0 0.0
2015-Jun-26 08:32N 51°47' E 003°18'0 0.0
2015-Jun-26 07:31N 51°47' E 003°18'0 0.0
2015-Jun-26 06:28N 51°47' E 003°18'0 0.0
2015-Jun-26 05:28N 51°47' E 003°18'0 0.0
2015-Jun-26 04:33N 51°47' E 003°18'0 0.0
2015-Jun-26 03:33N 51°47' E 003°18'0 0.0
2015-Jun-26 02:26N 51°47' E 003°18'0 0.0
2015-Jun-26 01:26N 51°47' E 003°18'0 0.0
2015-Jun-26 00:28N 51°47' E 003°18'0 0.0
2015-Jun-25 23:31N 51°47' E 003°18'0 0.0
2015-Jun-25 22:33N 51°47' E 003°18'0 0.0
2015-Jun-25 21:33N 51°47' E 003°18'0 0.0
2015-Jun-25 20:33N 51°47' E 003°18'0 0.0
2015-Jun-25 19:32N 51°47' E 003°18'0 0.0
2015-Jun-25 18:26N 51°47' E 003°18'0 0.0
2015-Jun-25 17:31N 51°47' E 003°18'0 0.0
2015-Jun-25 16:31N 51°47' E 003°18'2 1.9
2015-Jun-25 15:33N 51°47' E 003°15'  
Track history (hours):
 
Tides and Currents Weather Stations Pressure Air Temp Water Temp Dewpoint Dewpoint Depression Visibility Wind Speed Wind Dir Waves Ship Positions

MSC Nuria

Last reported at 2015-Jul-05 15:08 UTC. Time now 2015-Aug-04 21:59 UTC.
Position N 49°55' W 003°18'.
Warning: this ship's position is 30 days out of date.

Length 275 m; draft 10 m.

Type: Ship (hazmat cat A). MMSI: 370272977.

Date/timePositionNaut miles runAvg speedWind from/ knotsBaromVisibWave heightAir tempDewpointWater temp
2015-Jul-05 15:08N 49°55' W 003°18'1718.5
2015-Jul-05 14:14N 50°01' W 002°53'1217.9
2015-Jul-05 13:33N 50°04' W 002°35'8914.9
2015-Jul-05 07:33N 50°27' W 000°20'1717.6
2015-Jul-05 06:33N 50°32' E 000°07'1616.1
2015-Jul-05 05:34N 50°36' E 000°31'1515.4
2015-Jul-05 04:34N 50°45' E 000°51'1414.2
2015-Jul-05 03:33N 50°54' E 001°08'1212.4
2015-Jul-05 02:33N 51°02' E 001°24'1111.1
2015-Jul-05 01:33N 51°09' E 001°38'1212.1
2015-Jul-05 00:34N 51°18' E 001°50'1514.9
2015-Jul-04 23:34N 51°31' E 002°02'1616.5
2015-Jul-04 22:34N 51°43' E 002°19'1616.2
2015-Jul-04 21:33N 51°55' E 002°37'1615.6
2015-Jul-04 20:34N 52°07' E 002°54'1514.6
2015-Jul-04 19:34N 52°19' E 003°08'1413.7
2015-Jul-04 18:33N 52°30' E 003°21'1313.3
2015-Jul-04 17:33N 52°41' E 003°34'1313.1
2015-Jul-04 16:33N 52°51' E 003°48'1313.2
2015-Jul-04 15:33N 52°60' E 004°04'1414.4
2015-Jul-04 14:34N 53°09' E 004°22'1413.9
2015-Jul-04 13:34N 53°22' E 004°32'1313.3
2015-Jul-04 12:34N 53°31' E 004°48'1414.2
2015-Jul-04 11:33N 53°36' E 005°10'1212.5
2015-Jul-04 10:33N 53°40' E 005°30'10 9.6
2015-Jul-04 09:33N 53°44' E 005°45'5 4.8
2015-Jul-04 08:33N 53°45' E 005°53'8 8.1
2015-Jul-04 07:33N 53°47' E 006°06'9 8.7
2015-Jul-04 06:33N 53°50' E 006°20'10 9.9
2015-Jul-04 05:33N 53°52' E 006°36'1010.4
2015-Jul-04 04:33N 53°55' E 006°53'1010.4
2015-Jul-04 03:33N 53°57' E 007°10'1010.1
2015-Jul-04 02:33N 53°60' E 007°27'9 9.4
2015-Jul-04 01:33N 54°03' E 007°42'2 1.7
2015-Jul-04 00:31N 54°04' E 007°44'0 0.1
2015-Jul-03 23:31N 54°04' E 007°44'0 0.1
2015-Jul-03 22:28N 54°04' E 007°44'0 0.0
2015-Jul-03 21:33N 54°04' E 007°44'0 0.0
2015-Jul-03 20:33N 54°04' E 007°44'0 0.0
2015-Jul-03 19:29N 54°04' E 007°44'0 0.0
2015-Jul-03 18:32N 54°04' E 007°44'0 0.0
2015-Jul-03 17:28N 54°04' E 007°44'0 0.1
2015-Jul-03 16:32N 54°04' E 007°44'0 0.0
2015-Jul-03 15:32N 54°04' E 007°44'0 0.0
2015-Jul-03 14:18N 54°04' E 007°44'0 0.1
2015-Jul-03 13:33N 54°04' E 007°44'0 0.0
2015-Jul-03 11:29N 54°04' E 007°44'0 0.0
2015-Jul-03 10:23N 54°04' E 007°44'0 0.0
2015-Jul-03 09:25N 54°04' E 007°44'0 0.3
2015-Jul-03 08:33N 54°04' E 007°44'3 3.4
2015-Jul-03 07:33N 54°03' E 007°49'1110.7
2015-Jul-03 06:33N 54°01' E 008°07'1211.9
2015-Jul-03 05:33N 53°59' E 008°27'1313.1
2015-Jul-03 04:33N 53°51' E 008°45'1212.3
2015-Jul-03 03:34N 53°53' E 009°06'10 9.9
2015-Jul-03 02:33N 53°50' E 009°22'7 6.6
2015-Jul-03 01:33N 53°44' E 009°27'9 9.4
2015-Jul-03 00:34N 53°36' E 009°36'7 7.4
2015-Jul-02 23:33N 53°33' E 009°47'4 4.3
2015-Jul-02 22:32N 53°32' E 009°54'0 0.0
2015-Jul-02 21:32N 53°32' E 009°54'0 0.0
2015-Jul-02 20:29N 53°32' E 009°54'0 0.0
2015-Jul-02 19:28N 53°32' E 009°54'0 0.0
2015-Jul-02 18:31N 53°32' E 009°54'0 0.0
2015-Jul-02 17:33N 53°32' E 009°54'0 0.0
2015-Jul-02 16:33N 53°32' E 009°54'0 0.0
2015-Jul-02 15:32N 53°32' E 009°54'0 0.0
2015-Jul-02 14:26N 53°32' E 009°54'0 0.0
2015-Jul-02 13:32N 53°32' E 009°54'0 0.0
2015-Jul-02 12:28N 53°32' E 009°54'0 0.0
2015-Jul-02 11:31N 53°32' E 009°54'0 0.0
2015-Jul-02 10:24N 53°32' E 009°54'0 0.0
2015-Jul-02 09:33N 53°32' E 009°54'0 0.0
2015-Jul-02 08:32N 53°32' E 009°54'0 0.0
2015-Jul-02 07:05N 53°32' E 009°54'0 0.0
2015-Jul-02 06:30N 53°32' E 009°54'0 0.0
2015-Jul-02 05:28N 53°32' E 009°54'0 0.0
2015-Jul-02 04:28N 53°32' E 009°54'1 0.9
2015-Jul-02 03:33N 53°32' E 009°53'9 9.0
2015-Jul-02 02:33N 53°34' E 009°39'1211.9
2015-Jul-02 01:33N 53°44' E 009°27'1313.0
2015-Jul-02 00:33N 53°53' E 009°10'1514.9
2015-Jul-01 23:33N 53°51' E 008°45'1815.5
2015-Jul-01 22:22N 53°60' E 008°17'8 9.8
2015-Jul-01 21:33N 53°59' E 008°04'8 7.3
2015-Jul-01 20:25N 53°58' E 007°50'3 3.5
2015-Jul-01 19:33N 54°01' E 007°47'13 4.3
2015-Jul-01 16:33N 53°51' E 008°02'1313.1
2015-Jul-01 15:34N 53°43' E 008°19'1111.4
2015-Jul-01 14:33N 53°34' E 008°32'0 0.0
2015-Jul-01 13:25N 53°34' E 008°32'0 0.0
2015-Jul-01 12:31N 53°34' E 008°32'0 0.0
2015-Jul-01 10:30N 53°34' E 008°32'0 0.0
2015-Jul-01 09:29N 53°34' E 008°32'0 0.0
2015-Jul-01 08:29N 53°34' E 008°32'0 0.0
2015-Jul-01 07:28N 53°34' E 008°32'0 0.0
2015-Jul-01 06:19N 53°34' E 008°32'0 0.0
2015-Jul-01 05:31N 53°34' E 008°32'0 0.0
2015-Jul-01 04:33N 53°34' E 008°32'0 0.0
2015-Jul-01 03:33N 53°34' E 008°32'0 0.0
2015-Jul-01 02:32N 53°34' E 008°32'0 0.0
2015-Jul-01 01:32N 53°34' E 008°32'0 0.0
2015-Jul-01 00:31N 53°34' E 008°32'0 0.0
2015-Jun-30 23:31N 53°34' E 008°32'0 0.0
2015-Jun-30 22:19N 53°34' E 008°32'2 2.3
2015-Jun-30 21:33N 53°36' E 008°31'1615.9
2015-Jun-30 20:33N 53°46' E 008°10'1513.9
2015-Jun-30 19:30N 53°53' E 007°48'5 5.7
2015-Jun-30 18:32N 53°54' E 007°39'0 0.5
2015-Jun-30 17:33N 53°54' E 007°39'0 0.3
2015-Jun-30 16:33N 53°54' E 007°38'1919.1
2015-Jun-30 15:34N 53°52' E 007°06'2019.7
2015-Jun-30 14:34N 53°47' E 006°34'2020.2
2015-Jun-30 13:34N 53°41' E 006°01'2020.3
2015-Jun-30 12:34N 53°34' E 005°29'2019.8
2015-Jun-30 11:33N 53°27' E 004°58'1919.1
2015-Jun-30 10:33N 53°14' E 004°34'2120.6
2015-Jun-30 09:32N 52°56' E 004°17'2020.3
2015-Jun-30 08:33N 52°40' E 003°58'2020.1
2015-Jun-30 07:33N 52°25' E 003°35'1918.8
2015-Jun-30 06:33N 52°12' E 003°13'1818.5
2015-Jun-30 05:33N 52°02' E 002°48'1919.2
2015-Jun-30 04:33N 51°55' E 002°19'1919.4
2015-Jun-30 03:33N 51°49' E 001°49'1110.9
2015-Jun-30 02:34N 51°47' E 001°32'1616.3
2015-Jun-30 01:33N 51°34' E 001°14'1615.6
2015-Jun-30 00:34N 51°29' E 000°51'1313.2
2015-Jun-29 23:33N 51°30' E 000°29'6 6.3
2015-Jun-29 22:34N 51°27' E 000°21'1 0.9
2015-Jun-29 21:33N 51°28' E 000°20'0 0.0
2015-Jun-29 20:33N 51°28' E 000°20'0 0.0
2015-Jun-29 19:33N 51°28' E 000°20'0 0.0
2015-Jun-29 18:33N 51°28' E 000°20'0 0.0
2015-Jun-29 17:33N 51°28' E 000°20'0 0.0
2015-Jun-29 16:33N 51°28' E 000°20'0 0.0
2015-Jun-29 15:33N 51°28' E 000°20'0 0.0
2015-Jun-29 14:33N 51°28' E 000°20'0 0.0
2015-Jun-29 13:33N 51°28' E 000°20'0 0.0
2015-Jun-29 12:33N 51°28' E 000°20'0 0.0
2015-Jun-29 11:33N 51°28' E 000°20'0 0.0
2015-Jun-29 10:33N 51°28' E 000°20'0 0.0
2015-Jun-29 09:34N 51°28' E 000°20'0 0.0
2015-Jun-29 08:34N 51°28' E 000°20'0 0.0
2015-Jun-29 07:33N 51°28' E 000°20'0 0.0
2015-Jun-29 06:33N 51°28' E 000°20'0 0.0
2015-Jun-29 05:33N 51°28' E 000°20'0 0.0
2015-Jun-29 04:34N 51°28' E 000°20'0 0.0
2015-Jun-29 03:34N 51°28' E 000°20'0 0.0
2015-Jun-29 02:34N 51°28' E 000°20'0 0.0
2015-Jun-29 01:34N 51°28' E 000°20'0 0.0
2015-Jun-29 00:31N 51°28' E 000°20'0 0.0
2015-Jun-28 23:31N 51°28' E 000°20'0 0.0
2015-Jun-28 22:34N 51°28' E 000°20'5 5.2
2015-Jun-28 21:33N 51°29' E 000°28'1212.5
2015-Jun-28 20:33N 51°29' E 000°48'1514.8
2015-Jun-28 19:33N 51°34' E 001°11'1716.7
2015-Jun-28 18:33N 51°45' E 001°31'10 9.6
2015-Jun-28 17:33N 51°51' E 001°42'4 3.8
2015-Jun-28 16:33N 51°50' E 001°47'1414.4
2015-Jun-28 15:34N 51°35' E 001°52'1817.7
2015-Jun-28 14:34N 51°22' E 002°10'1717.2
2015-Jun-28 13:34N 51°23' E 002°38'1111.0
2015-Jun-28 12:33N 51°23' E 002°55'1413.9
2015-Jun-28 11:34N 51°25' E 003°17'1211.9
2015-Jun-28 10:33N 51°26' E 003°36'1010.5
2015-Jun-28 09:33N 51°21' E 003°51'8 7.8
2015-Jun-28 08:33N 51°24' E 004°02'8 8.3
2015-Jun-28 07:33N 51°21' E 004°14'2 1.7
2015-Jun-28 06:33N 51°21' E 004°17'0 0.3
2015-Jun-28 05:33N 51°21' E 004°17'2 1.7
2015-Jun-28 04:33N 51°19' E 004°19'0 0.0
2015-Jun-28 03:33N 51°19' E 004°19'0 0.0
2015-Jun-28 02:32N 51°19' E 004°19'0 0.0
2015-Jun-28 01:32N 51°19' E 004°19'0 0.0
2015-Jun-28 00:32N 51°19' E 004°19'0 0.0
2015-Jun-27 23:31N 51°19' E 004°19'0 0.0
2015-Jun-27 22:28N 51°19' E 004°19'0 0.0
2015-Jun-27 21:33N 51°19' E 004°19'0 0.0
2015-Jun-27 20:33N 51°19' E 004°19'0 0.0
2015-Jun-27 19:32N 51°19' E 004°19'0 0.0
2015-Jun-27 18:32N 51°19' E 004°19'0 0.0
2015-Jun-27 17:32N 51°19' E 004°19'0 0.0
2015-Jun-27 16:31N 51°19' E 004°19'0 0.0
2015-Jun-27 15:31N 51°19' E 004°19'0 0.0
2015-Jun-27 14:33N 51°19' E 004°19'0 0.0
2015-Jun-27 13:33N 51°19' E 004°19'0 0.0
2015-Jun-27 12:32N 51°19' E 004°19'0 0.0
2015-Jun-27 11:32N 51°19' E 004°19'0 0.0
2015-Jun-27 10:32N 51°19' E 004°19'0 0.0
2015-Jun-27 09:31N 51°19' E 004°19'0 0.0
2015-Jun-27 08:33N 51°19' E 004°19'0 0.0
2015-Jun-27 07:33N 51°19' E 004°19'0 0.0
2015-Jun-27 06:33N 51°19' E 004°19'0 0.0
2015-Jun-27 05:33N 51°19' E 004°19'0 0.0
2015-Jun-27 04:32N 51°19' E 004°19'0 0.0
2015-Jun-27 03:32N 51°19' E 004°19'0 0.0
2015-Jun-27 02:31N 51°19' E 004°19'2 1.7
2015-Jun-27 01:33N 51°21' E 004°18'0 0.4
2015-Jun-27 00:33N 51°21' E 004°17'6 6.0
2015-Jun-26 23:33N 51°22' E 004°08'8 8.0
2015-Jun-26 22:33N 51°22' E 003°55'1211.6
2015-Jun-26 21:34N 51°26' E 003°38'1413.6
2015-Jun-26 20:33N 51°24' E 003°16'10 9.5
2015-Jun-26 19:33N 51°29' E 003°02'1313.4
2015-Jun-26 18:33N 51°40' E 003°13'7 7.2
2015-Jun-26 17:33N 51°47' E 003°17'0 0.2
2015-Jun-26 16:23N 51°47' E 003°18'0 0.1
2015-Jun-26 15:14N 51°47' E 003°18'0 0.0
2015-Jun-26 14:28N 51°47' E 003°18'0 0.0
2015-Jun-26 13:19N 51°47' E 003°18'0 0.0
2015-Jun-26 12:31N 51°47' E 003°18'0 0.0
2015-Jun-26 11:30N 51°47' E 003°18'0 0.0
2015-Jun-26 10:33N 51°47' E 003°18'0 0.0
2015-Jun-26 09:32N 51°47' E 003°18'0 0.0
2015-Jun-26 08:32N 51°47' E 003°18'0 0.0
2015-Jun-26 07:31N 51°47' E 003°18'0 0.0
2015-Jun-26 06:28N 51°47' E 003°18'0 0.0
2015-Jun-26 05:28N 51°47' E 003°18'0 0.0
2015-Jun-26 04:33N 51°47' E 003°18'0 0.0
2015-Jun-26 03:33N 51°47' E 003°18'0 0.0
2015-Jun-26 02:26N 51°47' E 003°18'0 0.0
2015-Jun-26 01:26N 51°47' E 003°18'0 0.0
2015-Jun-26 00:28N 51°47' E 003°18'0 0.0
2015-Jun-25 23:31N 51°47' E 003°18'0 0.0
2015-Jun-25 22:33N 51°47' E 003°18'0 0.0
2015-Jun-25 21:33N 51°47' E 003°18'0 0.0
2015-Jun-25 20:33N 51°47' E 003°18'0 0.0
2015-Jun-25 19:32N 51°47' E 003°18'0 0.0
2015-Jun-25 18:26N 51°47' E 003°18'0 0.0
2015-Jun-25 17:31N 51°47' E 003°18'0 0.0
2015-Jun-25 16:31N 51°47' E 003°18'2 1.9
2015-Jun-25 15:33N 51°47' E 003°15'  

Dump ship's entire track history